Buoy 46612

sailwx.info

Track history (hours):
 
Tides and Currents Weather Stations Pressure Air Temp Water Temp Dewpoint Dewpoint Depression Visibility Wind Speed Wind Dir Waves Ship Positions

Drifting buoy 46612

Last reported at 2016-Sep-30 00:00 UTC. Time now 2016-Sep-30 01:37 UTC.
Position N 28°42' W 132°29'.

Water temperature 21.8 ° C

Date/timePositionNaut miles runAvg speedWind from/ knotsBaromVisibWave heightAir tempDewpointWater temp
2016-Sep-30 00:00N 28°42' W 132°29'1 1.0 21.8
2016-Sep-29 23:00N 28°43' W 132°30'1 0.4 21.7
2016-Sep-29 21:00N 28°42' W 132°31'0 0.1 21.7
2016-Sep-29 19:00N 28°42' W 132°31'1 0.6 21.6
2016-Sep-29 18:00N 28°42' W 132°31'0 0.0 21.5
2016-Sep-29 17:00N 28°42' W 132°31'0 0.1 21.5
2016-Sep-29 16:00N 28°41' W 132°31'0 0.1 21.5
2016-Sep-29 15:00N 28°41' W 132°31'1 0.6 21.5
2016-Sep-29 14:00N 28°41' W 132°31'2 0.2 21.5
2016-Sep-29 06:00N 28°43' W 132°31'0 0.5 21.6
2016-Sep-29 05:00N 28°43' W 132°31'0 0.2 21.6
2016-Sep-29 03:00N 28°43' W 132°31'0 0.3 21.7
2016-Sep-29 02:00N 28°43' W 132°31'1 1.1 21.8
2016-Sep-29 01:00N 28°44' W 132°32'0 0.0 21.8
2016-Sep-29 00:00N 28°44' W 132°32'0 0.2 21.9
2016-Sep-28 23:00N 28°44' W 132°31'2 0.9 21.8
2016-Sep-28 21:00N 28°45' W 132°33'0 0.2 21.7
2016-Sep-28 19:00N 28°45' W 132°34'1 0.6 21.5
2016-Sep-28 18:00N 28°45' W 132°34'1 0.4 21.5
2016-Sep-28 16:00N 28°44' W 132°35'1 0.4 21.5
2016-Sep-28 14:00N 28°43' W 132°35'0 0.2 21.5
2016-Sep-28 13:00N 28°43' W 132°35'1 0.2 21.5
2016-Sep-28 07:00N 28°44' W 132°34'1 0.7 21.6
2016-Sep-28 05:00N 28°45' W 132°35'0 0.1 21.6
2016-Sep-28 04:00N 28°45' W 132°35'0 0.2 21.6
2016-Sep-28 03:00N 28°45' W 132°35'0 0.4 21.7
2016-Sep-28 02:00N 28°45' W 132°35'1 0.3 21.7
2016-Sep-28 00:00N 28°46' W 132°35'1 0.9 21.9
2016-Sep-27 23:00N 28°46' W 132°36'2 0.6 21.8
2016-Sep-27 19:00N 28°46' W 132°39'0 0.0 21.5
2016-Sep-27 18:00N 28°46' W 132°39'0 0.0 21.5
2016-Sep-27 17:00N 28°46' W 132°39'0 0.2 21.5
2016-Sep-27 16:00N 28°46' W 132°39'0 0.2 21.5
2016-Sep-27 15:00N 28°46' W 132°39'1 0.6 21.5
2016-Sep-27 14:00N 28°45' W 132°39'0 0.3 21.5
2016-Sep-27 13:00N 28°45' W 132°40'0 0.0 21.5
2016-Sep-27 12:00N 28°45' W 132°40'1 0.2 21.5
2016-Sep-27 07:00N 28°46' W 132°39'0 0.0 21.5
2016-Sep-27 05:00N 28°46' W 132°39'0 0.3 21.5
2016-Sep-27 04:00N 28°46' W 132°39'0 0.3 21.5
2016-Sep-27 03:00N 28°47' W 132°39'0 0.2 21.5
2016-Sep-27 02:00N 28°47' W 132°39'1 0.5 21.5
2016-Sep-27 01:00N 28°47' W 132°40'1 0.4 21.6
2016-Sep-26 23:00N 28°48' W 132°40'2 0.9 21.6
2016-Sep-26 21:00N 28°49' W 132°42'0 0.0 21.5
2016-Sep-26 17:00N 28°49' W 132°42'0 0.3 21.5
2016-Sep-26 16:00N 28°49' W 132°42'1 0.6 21.5
2016-Sep-26 15:00N 28°48' W 132°42'0 0.2 21.5
2016-Sep-26 14:00N 28°48' W 132°43'1 0.8 21.5
2016-Sep-26 13:00N 28°48' W 132°43'1 0.1 21.5
2016-Sep-26 04:00N 28°48' W 132°42'0 0.4 21.6
2016-Sep-26 03:00N 28°48' W 132°42'0 0.4 21.6
2016-Sep-26 02:00N 28°49' W 132°41'0 0.1 21.6
2016-Sep-26 01:00N 28°49' W 132°42'1 0.6 21.6
2016-Sep-25 23:00N 28°50' W 132°41'2 0.9 21.6
2016-Sep-25 21:00N 28°51' W 132°42'0 0.2 21.6
2016-Sep-25 18:00N 28°51' W 132°43'0 0.2 21.5
2016-Sep-25 16:00N 28°51' W 132°43'0 0.1 21.4
2016-Sep-25 15:00N 28°51' W 132°43'0 0.5 21.4
2016-Sep-25 14:00N 28°51' W 132°44'0 0.4 21.4
2016-Sep-25 13:00N 28°51' W 132°44'1 0.1 21.5
2016-Sep-25 06:00N 28°51' W 132°43'0 0.0 21.5
2016-Sep-25 05:00N 28°51' W 132°43'1 0.9 21.5
2016-Sep-25 04:00N 28°51' W 132°42'1 0.7 21.4
2016-Sep-25 02:00N 28°52' W 132°42'0 0.1 21.4
2016-Sep-24 23:00N 28°53' W 132°42'1 0.9 21.4
2016-Sep-24 22:00N 28°53' W 132°43'1 0.2 21.4
2016-Sep-24 18:00N 28°54' W 132°43'0 0.0 21.3
2016-Sep-24 17:00N 28°54' W 132°43'0 0.2 21.3
2016-Sep-24 16:00N 28°55' W 132°43'0 0.1 21.3
2016-Sep-24 15:00N 28°55' W 132°43'0 0.4 21.3
2016-Sep-24 14:00N 28°55' W 132°44'0 0.1 21.3
2016-Sep-24 06:00N 28°54' W 132°44'0 0.0 21.3
2016-Sep-24 05:00N 28°54' W 132°44'0 0.4 21.3
2016-Sep-24 04:00N 28°55' W 132°44'0 0.0 21.3
2016-Sep-24 02:00N 28°55' W 132°44'1 1.0 21.4
2016-Sep-24 01:00N 28°56' W 132°43'0 0.1 21.4
2016-Sep-24 00:00N 28°56' W 132°43'0 0.2 21.4
2016-Sep-23 22:00N 28°56' W 132°43'2 0.3 21.4
2016-Sep-23 16:00N 28°57' W 132°44'0 0.2 21.4
2016-Sep-23 15:00N 28°57' W 132°45'0 0.0 21.4
2016-Sep-23 14:00N 28°57' W 132°45'0 0.1 21.4
2016-Sep-23 13:00N 28°57' W 132°45'0 0.4 21.4
2016-Sep-23 12:00N 28°57' W 132°45'1 0.2 21.4
2016-Sep-23 07:00N 28°57' W 132°44'1 0.6 21.4
2016-Sep-23 05:00N 28°58' W 132°44'0 0.1 21.4
2016-Sep-23 03:00N 28°58' W 132°44'0 0.4 21.4
2016-Sep-23 02:00N 28°58' W 132°44'0 0.1 21.4
2016-Sep-23 01:00N 28°58' W 132°44'0 0.2 21.4
2016-Sep-23 00:00N 28°58' W 132°43'1 0.2 21.4
2016-Sep-22 18:00N 28°59' W 132°44'0 0.0 21.4
2016-Sep-22 17:00N 28°59' W 132°44'0 0.0 21.4
2016-Sep-22 16:00N 28°59' W 132°44'0 0.1 21.4
2016-Sep-22 15:00N 28°59' W 132°44'1 0.1 21.4
2016-Sep-22 07:00N 28°58' W 132°43'0 0.1 21.6
2016-Sep-22 05:00N 28°58' W 132°43'0 0.2 21.6
2016-Sep-22 04:00N 28°58' W 132°43'1 0.5 21.6
2016-Sep-22 03:00N 28°58' W 132°42'1 0.6 21.6
2016-Sep-22 02:00N 28°59' W 132°42'0 0.5 21.6
2016-Sep-22 01:00N 28°59' W 132°42'1 1.3 21.7
2016-Sep-22 00:00N 29°00' W 132°41'0 0.1 21.6
2016-Sep-21 22:00N 29°00' W 132°41'1 0.4 21.6
2016-Sep-21 19:00N 29°01' W 132°42'0 0.0 21.6
2016-Sep-21 18:00N 29°01' W 132°42'0 0.3 21.6
2016-Sep-21 17:00N 29°01' W 132°42'0 0.2 21.6
2016-Sep-21 16:00N 29°01' W 132°42'0 0.2 21.6
2016-Sep-21 15:00N 29°01' W 132°42'0 0.2 21.6
2016-Sep-21 14:00N 29°01' W 132°42'1 0.1 21.6
2016-Sep-21 07:00N 29°01' W 132°41'0 0.1 21.7
2016-Sep-21 06:00N 29°01' W 132°41'0 0.3 21.7
2016-Sep-21 05:00N 29°01' W 132°41'1 0.6 21.7
2016-Sep-21 04:00N 29°01' W 132°40'0 0.3 21.7
2016-Sep-21 03:00N 29°01' W 132°40'0 0.5 21.7
2016-Sep-21 02:00N 29°02' W 132°40'1 0.8 21.7
2016-Sep-21 01:00N 29°02' W 132°39'1 0.7 21.7
2016-Sep-21 00:00N 29°03' W 132°40'1 0.2 21.7
2016-Sep-20 19:00N 29°04' W 132°39'0 0.2 21.7
2016-Sep-20 18:00N 29°04' W 132°40'0 0.0 21.7
2016-Sep-20 17:00N 29°04' W 132°40'0 0.0 21.7
2016-Sep-20 16:00N 29°04' W 132°40'0 0.1 21.7
2016-Sep-20 15:00N 29°04' W 132°40'0 0.4 21.7
2016-Sep-20 14:00N 29°04' W 132°40'0 0.3 21.7
2016-Sep-20 13:00N 29°04' W 132°39'1 0.1 21.7
2016-Sep-20 06:00N 29°04' W 132°39'1 0.5 21.7
2016-Sep-20 03:00N 29°04' W 132°37'0 0.5 21.8
2016-Sep-20 02:00N 29°04' W 132°37'2 0.8 21.8
2016-Sep-20 00:00N 29°06' W 132°36'   21.8
Track history (hours):
 
Tides and Currents Weather Stations Pressure Air Temp Water Temp Dewpoint Dewpoint Depression Visibility Wind Speed Wind Dir Waves Ship Positions

Drifting buoy 46612

Last reported at 2016-Sep-30 00:00 UTC. Time now 2016-Sep-30 01:37 UTC.
Position N 28°42' W 132°29'.

Water temperature 21.8 ° C

Date/timePositionNaut miles runAvg speedWind from/ knotsBaromVisibWave heightAir tempDewpointWater temp
2016-Sep-30 00:00N 28°42' W 132°29'1 1.0 21.8
2016-Sep-29 23:00N 28°43' W 132°30'1 0.4 21.7
2016-Sep-29 21:00N 28°42' W 132°31'0 0.1 21.7
2016-Sep-29 19:00N 28°42' W 132°31'1 0.6 21.6
2016-Sep-29 18:00N 28°42' W 132°31'0 0.0 21.5
2016-Sep-29 17:00N 28°42' W 132°31'0 0.1 21.5
2016-Sep-29 16:00N 28°41' W 132°31'0 0.1 21.5
2016-Sep-29 15:00N 28°41' W 132°31'1 0.6 21.5
2016-Sep-29 14:00N 28°41' W 132°31'2 0.2 21.5
2016-Sep-29 06:00N 28°43' W 132°31'0 0.5 21.6
2016-Sep-29 05:00N 28°43' W 132°31'0 0.2 21.6
2016-Sep-29 03:00N 28°43' W 132°31'0 0.3 21.7
2016-Sep-29 02:00N 28°43' W 132°31'1 1.1 21.8
2016-Sep-29 01:00N 28°44' W 132°32'0 0.0 21.8
2016-Sep-29 00:00N 28°44' W 132°32'0 0.2 21.9
2016-Sep-28 23:00N 28°44' W 132°31'2 0.9 21.8
2016-Sep-28 21:00N 28°45' W 132°33'0 0.2 21.7
2016-Sep-28 19:00N 28°45' W 132°34'1 0.6 21.5
2016-Sep-28 18:00N 28°45' W 132°34'1 0.4 21.5
2016-Sep-28 16:00N 28°44' W 132°35'1 0.4 21.5
2016-Sep-28 14:00N 28°43' W 132°35'0 0.2 21.5
2016-Sep-28 13:00N 28°43' W 132°35'1 0.2 21.5
2016-Sep-28 07:00N 28°44' W 132°34'1 0.7 21.6
2016-Sep-28 05:00N 28°45' W 132°35'0 0.1 21.6
2016-Sep-28 04:00N 28°45' W 132°35'0 0.2 21.6
2016-Sep-28 03:00N 28°45' W 132°35'0 0.4 21.7
2016-Sep-28 02:00N 28°45' W 132°35'1 0.3 21.7
2016-Sep-28 00:00N 28°46' W 132°35'1 0.9 21.9
2016-Sep-27 23:00N 28°46' W 132°36'2 0.6 21.8
2016-Sep-27 19:00N 28°46' W 132°39'0 0.0 21.5
2016-Sep-27 18:00N 28°46' W 132°39'0 0.0 21.5
2016-Sep-27 17:00N 28°46' W 132°39'0 0.2 21.5
2016-Sep-27 16:00N 28°46' W 132°39'0 0.2 21.5
2016-Sep-27 15:00N 28°46' W 132°39'1 0.6 21.5
2016-Sep-27 14:00N 28°45' W 132°39'0 0.3 21.5
2016-Sep-27 13:00N 28°45' W 132°40'0 0.0 21.5
2016-Sep-27 12:00N 28°45' W 132°40'1 0.2 21.5
2016-Sep-27 07:00N 28°46' W 132°39'0 0.0 21.5
2016-Sep-27 05:00N 28°46' W 132°39'0 0.3 21.5
2016-Sep-27 04:00N 28°46' W 132°39'0 0.3 21.5
2016-Sep-27 03:00N 28°47' W 132°39'0 0.2 21.5
2016-Sep-27 02:00N 28°47' W 132°39'1 0.5 21.5
2016-Sep-27 01:00N 28°47' W 132°40'1 0.4 21.6
2016-Sep-26 23:00N 28°48' W 132°40'2 0.9 21.6
2016-Sep-26 21:00N 28°49' W 132°42'0 0.0 21.5
2016-Sep-26 17:00N 28°49' W 132°42'0 0.3 21.5
2016-Sep-26 16:00N 28°49' W 132°42'1 0.6 21.5
2016-Sep-26 15:00N 28°48' W 132°42'0 0.2 21.5
2016-Sep-26 14:00N 28°48' W 132°43'1 0.8 21.5
2016-Sep-26 13:00N 28°48' W 132°43'1 0.1 21.5
2016-Sep-26 04:00N 28°48' W 132°42'0 0.4 21.6
2016-Sep-26 03:00N 28°48' W 132°42'0 0.4 21.6
2016-Sep-26 02:00N 28°49' W 132°41'0 0.1 21.6
2016-Sep-26 01:00N 28°49' W 132°42'1 0.6 21.6
2016-Sep-25 23:00N 28°50' W 132°41'2 0.9 21.6
2016-Sep-25 21:00N 28°51' W 132°42'0 0.2 21.6
2016-Sep-25 18:00N 28°51' W 132°43'0 0.2 21.5
2016-Sep-25 16:00N 28°51' W 132°43'0 0.1 21.4
2016-Sep-25 15:00N 28°51' W 132°43'0 0.5 21.4
2016-Sep-25 14:00N 28°51' W 132°44'0 0.4 21.4
2016-Sep-25 13:00N 28°51' W 132°44'1 0.1 21.5
2016-Sep-25 06:00N 28°51' W 132°43'0 0.0 21.5
2016-Sep-25 05:00N 28°51' W 132°43'1 0.9 21.5
2016-Sep-25 04:00N 28°51' W 132°42'1 0.7 21.4
2016-Sep-25 02:00N 28°52' W 132°42'0 0.1 21.4
2016-Sep-24 23:00N 28°53' W 132°42'1 0.9 21.4
2016-Sep-24 22:00N 28°53' W 132°43'1 0.2 21.4
2016-Sep-24 18:00N 28°54' W 132°43'0 0.0 21.3
2016-Sep-24 17:00N 28°54' W 132°43'0 0.2 21.3
2016-Sep-24 16:00N 28°55' W 132°43'0 0.1 21.3
2016-Sep-24 15:00N 28°55' W 132°43'0 0.4 21.3
2016-Sep-24 14:00N 28°55' W 132°44'0 0.1 21.3
2016-Sep-24 06:00N 28°54' W 132°44'0 0.0 21.3
2016-Sep-24 05:00N 28°54' W 132°44'0 0.4 21.3
2016-Sep-24 04:00N 28°55' W 132°44'0 0.0 21.3
2016-Sep-24 02:00N 28°55' W 132°44'1 1.0 21.4
2016-Sep-24 01:00N 28°56' W 132°43'0 0.1 21.4
2016-Sep-24 00:00N 28°56' W 132°43'0 0.2 21.4
2016-Sep-23 22:00N 28°56' W 132°43'2 0.3 21.4
2016-Sep-23 16:00N 28°57' W 132°44'0 0.2 21.4
2016-Sep-23 15:00N 28°57' W 132°45'0 0.0 21.4
2016-Sep-23 14:00N 28°57' W 132°45'0 0.1 21.4
2016-Sep-23 13:00N 28°57' W 132°45'0 0.4 21.4
2016-Sep-23 12:00N 28°57' W 132°45'1 0.2 21.4
2016-Sep-23 07:00N 28°57' W 132°44'1 0.6 21.4
2016-Sep-23 05:00N 28°58' W 132°44'0 0.1 21.4
2016-Sep-23 03:00N 28°58' W 132°44'0 0.4 21.4
2016-Sep-23 02:00N 28°58' W 132°44'0 0.1 21.4
2016-Sep-23 01:00N 28°58' W 132°44'0 0.2 21.4
2016-Sep-23 00:00N 28°58' W 132°43'1 0.2 21.4
2016-Sep-22 18:00N 28°59' W 132°44'0 0.0 21.4
2016-Sep-22 17:00N 28°59' W 132°44'0 0.0 21.4
2016-Sep-22 16:00N 28°59' W 132°44'0 0.1 21.4
2016-Sep-22 15:00N 28°59' W 132°44'1 0.1 21.4
2016-Sep-22 07:00N 28°58' W 132°43'0 0.1 21.6
2016-Sep-22 05:00N 28°58' W 132°43'0 0.2 21.6
2016-Sep-22 04:00N 28°58' W 132°43'1 0.5 21.6
2016-Sep-22 03:00N 28°58' W 132°42'1 0.6 21.6
2016-Sep-22 02:00N 28°59' W 132°42'0 0.5 21.6
2016-Sep-22 01:00N 28°59' W 132°42'1 1.3 21.7
2016-Sep-22 00:00N 29°00' W 132°41'0 0.1 21.6
2016-Sep-21 22:00N 29°00' W 132°41'1 0.4 21.6
2016-Sep-21 19:00N 29°01' W 132°42'0 0.0 21.6
2016-Sep-21 18:00N 29°01' W 132°42'0 0.3 21.6
2016-Sep-21 17:00N 29°01' W 132°42'0 0.2 21.6
2016-Sep-21 16:00N 29°01' W 132°42'0 0.2 21.6
2016-Sep-21 15:00N 29°01' W 132°42'0 0.2 21.6
2016-Sep-21 14:00N 29°01' W 132°42'1 0.1 21.6
2016-Sep-21 07:00N 29°01' W 132°41'0 0.1 21.7
2016-Sep-21 06:00N 29°01' W 132°41'0 0.3 21.7
2016-Sep-21 05:00N 29°01' W 132°41'1 0.6 21.7
2016-Sep-21 04:00N 29°01' W 132°40'0 0.3 21.7
2016-Sep-21 03:00N 29°01' W 132°40'0 0.5 21.7
2016-Sep-21 02:00N 29°02' W 132°40'1 0.8 21.7
2016-Sep-21 01:00N 29°02' W 132°39'1 0.7 21.7
2016-Sep-21 00:00N 29°03' W 132°40'1 0.2 21.7
2016-Sep-20 19:00N 29°04' W 132°39'0 0.2 21.7
2016-Sep-20 18:00N 29°04' W 132°40'0 0.0 21.7
2016-Sep-20 17:00N 29°04' W 132°40'0 0.0 21.7
2016-Sep-20 16:00N 29°04' W 132°40'0 0.1 21.7
2016-Sep-20 15:00N 29°04' W 132°40'0 0.4 21.7
2016-Sep-20 14:00N 29°04' W 132°40'0 0.3 21.7
2016-Sep-20 13:00N 29°04' W 132°39'1 0.1 21.7
2016-Sep-20 06:00N 29°04' W 132°39'1 0.5 21.7
2016-Sep-20 03:00N 29°04' W 132°37'0 0.5 21.8
2016-Sep-20 02:00N 29°04' W 132°37'2 0.8 21.8
2016-Sep-20 00:00N 29°06' W 132°36'   21.8

Dump ship's entire track history